This is the latest recevied weather packets stored in our database for station/object WW4HG. If no packets are shown the sender has not sent any weather packets the latest 1 day(s).
| Time | Temp. | Humidity | Pressure | Rain* | Wind** | Luminosity | Snow |
|---|---|---|---|---|---|---|---|
| 1777984560 | 18.89° C | 56% | 1019.4 hPa | 0 mm | 0 m/s | 254 W/m² | - |
| 1777984256 | 18.89° C | 52% | 1019.4 hPa | 0 mm | 0 m/s | 246 W/m² | - |
| 1777983953 | 17.78° C | 54% | 1019.4 hPa | 0 mm | 0 m/s | 238 W/m² | - |
| 1777983650 | 17.22° C | 56% | 1019.7 hPa | 0 mm | 0 m/s | 230 W/m² | - |
| 1777983347 | 16.11° C | 57% | 1019.4 hPa | 0 mm | 0 m/s | 221 W/m² | - |
| 1777983044 | 15.56° C | 62% | 1019.4 hPa | 0 mm | 0 m/s | 212 W/m² | - |
| 1777982740 | 15° C | 66% | 1019.4 hPa | 0 mm | 0 m/s | 205 W/m² | - |
| 1777982436 | 13.89° C | 71% | 1019.4 hPa | 0 mm | 0 m/s | 196 W/m² | - |
| 1777982130 | 13.89° C | 75% | 1019.4 hPa | 0 mm | 0 m/s | 186 W/m² | - |
| 1777981828 | 13.33° C | 78% | 1019.4 hPa | 0 mm | 0 m/s | 177 W/m² | - |
| 1777981525 | 12.78° C | 81% | 1019.4 hPa | 0 mm | 0 m/s | 167 W/m² | - |
| 1777981221 | 11.67° C | 83% | 1019.4 hPa | 0 mm | 0 m/s | 155 W/m² | - |
| 1777980918 | 11.11° C | 84% | 1019.4 hPa | 0 mm | 0 m/s | 145 W/m² | - |
| 1777980615 | 10.56° C | 84% | 1019.4 hPa | 0 mm | 0 m/s | 135 W/m² | - |
| 1777980311 | 10.56° C | 84% | 1019 hPa | 0 mm | 0 m/s | 125 W/m² | - |
| 1777980009 | 10° C | 84% | 1019 hPa | 0 mm | 0 m/s | 110 W/m² | - |
| 1777979702 | 10° C | 84% | 1019 hPa | 0 mm | 0 m/s | 100 W/m² | - |
| 1777979399 | 9.44° C | 85% | 1019.4 hPa | 0 mm | 0 m/s | 80 W/m² | - |
| 1777979095 | 9.44° C | 85% | 1019 hPa | 0 mm | 0 m/s | 18 W/m² | - |
| 1777978792 | 9.44° C | 84% | 1019 hPa | 0 mm | 0 m/s | 14 W/m² | - |
| 1777978489 | 9.44° C | 84% | 1018.7 hPa | 0 mm | 0 m/s | 12 W/m² | - |
| 1777978185 | 9.44° C | 84% | 1018.7 hPa | 0 mm | 0 m/s | 9 W/m² | - |
| 1777977882 | 9.44° C | 84% | 1018.7 hPa | 0 mm | 0 m/s | 7 W/m² | - |
| 1777977579 | 9.44° C | 84% | 1018.7 hPa | 0 mm | 0 m/s | 5 W/m² | - |
| 1777977276 | 9.44° C | 84% | 1018.4 hPa | 0 mm | 0 m/s | 3 W/m² | - |
* Rain latest hour (hover to see other rain measurements)
** Current wind speed in m/s (hover to see current wind gust speed)